createdAt,value
2023-05-15T00:00:40.407Z,50.73
2023-05-15T00:02:04.875Z,51.03
2023-05-15T00:03:26.842Z,50.63
2023-05-15T00:04:51.254Z,50.77
2023-05-15T00:06:12.829Z,51.02
2023-05-15T00:07:34.937Z,51.02
2023-05-15T00:09:08.615Z,51.10
2023-05-15T00:10:30.675Z,50.96
2023-05-15T00:11:52.503Z,51.13
2023-05-15T00:13:16.777Z,51.30
2023-05-15T00:14:38.760Z,51.23
2023-05-15T00:16:00.812Z,51.31
2023-05-15T00:17:22.801Z,51.45
2023-05-15T00:18:44.972Z,51.88
2023-05-15T00:20:07.644Z,52.04
2023-05-15T00:21:29.860Z,52.19
2023-05-15T00:22:51.853Z,52.21
2023-05-15T00:24:13.801Z,52.48
2023-05-15T00:25:35.476Z,52.74
2023-05-15T00:26:59.581Z,52.82
2023-05-15T00:28:21.335Z,52.83
2023-05-15T00:29:43.897Z,53.29
2023-05-15T00:31:06.163Z,53.22
2023-05-15T00:32:27.707Z,53.73
2023-05-15T00:33:49.756Z,53.75
2023-05-15T00:35:18.628Z,53.92
2023-05-15T00:36:52.642Z,53.84
2023-05-15T00:38:39.522Z,53.97
2023-05-15T00:40:12.994Z,54.00
2023-05-15T00:42:00.639Z,54.19
2023-05-15T00:43:48.317Z,54.56
2023-05-15T00:45:28.961Z,54.67
2023-05-15T00:47:15.235Z,54.55
2023-05-15T00:48:49.837Z,54.93
2023-05-15T00:50:24.633Z,55.17
2023-05-15T00:52:10.759Z,55.35
2023-05-15T00:53:55.126Z,55.40
2023-05-15T00:55:31.216Z,55.67
2023-05-15T00:57:04.505Z,55.73
2023-05-15T00:58:38.113Z,56.20
2023-05-15T01:00:25.179Z,56.22
2023-05-15T01:02:06.718Z,56.82
2023-05-15T01:03:40.838Z,57.21
2023-05-15T01:05:17.585Z,57.79
2023-05-15T01:07:11.029Z,58.07
2023-05-15T01:08:44.614Z,58.11
2023-05-15T01:10:25.327Z,58.58
2023-05-15T01:11:47.404Z,59.00
2023-05-15T01:13:20.662Z,59.09
2023-05-15T01:14:54.838Z,59.41
2023-05-15T01:16:28.449Z,59.76
2023-05-15T01:18:09.855Z,59.87
2023-05-15T01:19:46.100Z,60.06
2023-05-15T01:21:31.724Z,60.24
2023-05-15T01:22:53.837Z,60.27
2023-05-15T01:24:15.273Z,60.59
2023-05-15T01:25:49.137Z,60.70
2023-05-15T01:27:34.139Z,60.97
2023-05-15T01:29:07.976Z,61.18
2023-05-15T01:30:41.670Z,61.49
2023-05-15T01:32:37.098Z,62.03
2023-05-15T01:34:22.588Z,61.79
2023-05-15T01:36:17.093Z,62.32
2023-05-15T01:37:57.970Z,62.80
2023-05-15T01:39:39.642Z,63.69
2023-05-15T01:41:20.110Z,63.90
2023-05-15T01:42:53.763Z,64.26
2023-05-15T01:44:30.031Z,64.95
2023-05-15T01:45:56.083Z,65.08
2023-05-15T01:47:42.369Z,65.56
2023-05-15T01:49:29.304Z,65.69
2023-05-15T01:51:10.682Z,65.76
2023-05-15T01:52:53.477Z,65.51
2023-05-15T01:54:22.906Z,65.85
2023-05-15T01:55:59.741Z,66.11
2023-05-15T01:57:36.157Z,65.85
2023-05-15T01:59:19.173Z,66.23
2023-05-15T02:01:11.546Z,66.17
2023-05-15T02:02:44.971Z,66.52
2023-05-15T02:04:07.171Z,66.33
2023-05-15T02:05:52.418Z,66.72
2023-05-15T02:07:38.358Z,67.19
2023-05-15T02:09:19.607Z,67.13
2023-05-15T02:11:00.480Z,67.52
2023-05-15T02:12:46.103Z,67.36
2023-05-15T02:14:22.129Z,66.95
2023-05-15T02:16:03.671Z,66.99
2023-05-15T02:17:39.726Z,67.59
2023-05-15T02:19:02.020Z,67.17
2023-05-15T02:20:43.777Z,67.43
2023-05-15T02:22:10.788Z,67.50
2023-05-15T02:23:41.705Z,67.56
2023-05-15T02:25:16.230Z,67.52
2023-05-15T02:27:01.640Z,67.70
2023-05-15T02:28:48.389Z,67.66
2023-05-15T02:30:33.896Z,67.60
2023-05-15T02:31:56.316Z,67.62
2023-05-15T02:33:41.477Z,67.73
2023-05-15T02:35:15.181Z,67.69
2023-05-15T02:36:39.422Z,67.80
2023-05-15T02:38:12.930Z,68.12
2023-05-15T02:39:53.970Z,68.18
2023-05-15T02:41:31.077Z,68.21
2023-05-15T02:43:07.229Z,68.20
2023-05-15T02:44:44.242Z,68.21
2023-05-15T02:46:18.227Z,68.26
2023-05-15T02:47:52.246Z,68.40
2023-05-15T02:49:16.157Z,68.41
2023-05-15T02:50:53.147Z,68.69
2023-05-15T02:52:26.750Z,68.77
2023-05-15T02:54:17.738Z,68.69
2023-05-15T02:56:03.450Z,68.76
2023-05-15T02:57:48.821Z,68.93
2023-05-15T02:59:25.347Z,69.24
2023-05-15T03:01:00.847Z,69.23
2023-05-15T03:02:47.901Z,69.38
2023-05-15T03:04:21.845Z,69.21
2023-05-15T03:06:07.973Z,69.41
2023-05-15T03:07:49.345Z,69.34
2023-05-15T03:09:41.742Z,69.48
2023-05-15T03:11:27.364Z,69.96
2023-05-15T03:12:52.550Z,69.76
2023-05-15T03:14:25.895Z,70.20
2023-05-15T03:16:10.386Z,70.08
2023-05-15T03:17:55.772Z,70.22
2023-05-15T03:19:41.515Z,70.71
2023-05-15T03:21:28.411Z,70.42
2023-05-15T03:23:02.385Z,70.25
2023-05-15T03:24:48.735Z,70.30
2023-05-15T03:26:40.083Z,70.60
2023-05-15T03:28:07.009Z,70.62
2023-05-15T03:29:52.187Z,70.95
2023-05-15T03:31:46.106Z,71.14
2023-05-15T03:33:32.020Z,71.40
2023-05-15T03:35:17.267Z,71.22
2023-05-15T03:37:03.134Z,71.40
2023-05-15T03:38:58.084Z,71.55
2023-05-15T03:40:45.011Z,71.79
2023-05-15T03:42:26.643Z,72.19
2023-05-15T03:44:03.093Z,72.13
2023-05-15T03:45:36.425Z,72.44
2023-05-15T03:47:10.524Z,72.40
2023-05-15T03:48:58.141Z,72.18
2023-05-15T03:50:34.026Z,72.54
2023-05-15T03:52:19.314Z,72.70
2023-05-15T03:54:05.174Z,73.38
2023-05-15T03:55:39.291Z,73.28
2023-05-15T03:57:01.782Z,73.21
2023-05-15T03:58:47.289Z,73.52
2023-05-15T04:00:41.094Z,73.82
2023-05-15T04:02:15.042Z,73.89
2023-05-15T04:03:37.013Z,74.01
2023-05-15T04:05:30.790Z,74.14
2023-05-15T04:07:16.320Z,74.58
2023-05-15T04:09:05.746Z,74.62
2023-05-15T04:10:52.476Z,74.81
2023-05-15T04:12:34.627Z,75.00
2023-05-15T04:14:24.047Z,75.03
2023-05-15T04:16:11.507Z,75.09
2023-05-15T04:17:57.788Z,75.08
2023-05-15T04:19:46.623Z,75.31
2023-05-15T04:21:24.362Z,75.39
2023-05-15T04:23:11.006Z,75.30
2023-05-15T04:24:56.514Z,75.13
2023-05-15T04:26:38.689Z,75.46
2023-05-15T04:28:22.812Z,75.49
2023-05-15T04:30:03.773Z,75.52
2023-05-15T04:31:39.349Z,75.44
2023-05-15T04:33:28.435Z,75.47
2023-05-15T04:35:02.407Z,75.73
2023-05-15T04:36:23.781Z,75.62
2023-05-15T04:38:17.542Z,75.84
2023-05-15T04:39:51.010Z,75.72
2023-05-15T04:41:36.045Z,75.93
2023-05-15T04:43:11.280Z,75.89
2023-05-15T04:44:44.836Z,75.92
2023-05-15T04:46:32.825Z,75.96
2023-05-15T04:48:18.208Z,75.77
2023-05-15T04:49:51.808Z,76.15
2023-05-15T04:51:25.563Z,76.14
2023-05-15T04:53:12.026Z,76.10
2023-05-15T04:54:58.063Z,76.29
2023-05-15T04:56:30.516Z,76.48
2023-05-15T04:58:22.363Z,76.40
2023-05-15T04:59:58.949Z,76.55
2023-05-15T05:01:33.472Z,76.72
2023-05-15T05:03:07.529Z,76.67
2023-05-15T05:04:32.220Z,76.61
2023-05-15T05:06:18.697Z,76.29
2023-05-15T05:07:52.379Z,76.73
2023-05-15T05:09:14.368Z,76.81
2023-05-15T05:10:38.538Z,76.73
2023-05-15T05:12:14.447Z,76.43
2023-05-15T05:14:08.385Z,76.10
2023-05-15T05:15:42.140Z,76.20
2023-05-15T05:17:15.817Z,76.06
2023-05-15T05:19:01.916Z,76.33
2023-05-15T05:20:35.570Z,75.92
2023-05-15T05:22:05.200Z,76.04
2023-05-15T05:23:41.467Z,76.14
2023-05-15T05:25:13.557Z,75.95
2023-05-15T05:26:59.249Z,75.99
2023-05-15T05:28:45.868Z,76.55
2023-05-15T05:30:39.570Z,76.64
2023-05-15T05:32:32.982Z,76.18
2023-05-15T05:34:18.865Z,76.31
2023-05-15T05:35:52.801Z,76.23
2023-05-15T05:37:38.863Z,76.05
2023-05-15T05:39:24.143Z,76.46
2023-05-15T05:41:18.048Z,76.33
2023-05-15T05:42:49.514Z,76.41
2023-05-15T05:44:34.466Z,76.47
2023-05-15T05:46:29.203Z,76.47
2023-05-15T05:48:06.414Z,76.59
2023-05-15T05:49:51.549Z,76.77
2023-05-15T05:51:44.918Z,76.88
2023-05-15T05:53:29.495Z,76.76
2023-05-15T05:55:03.763Z,76.75
2023-05-15T05:56:39.050Z,76.74
2023-05-15T05:58:32.634Z,76.95
2023-05-15T06:00:21.567Z,76.77
2023-05-15T06:02:07.194Z,76.99
2023-05-15T06:03:32.115Z,76.58
2023-05-15T06:04:57.248Z,76.56
2023-05-15T06:06:42.753Z,76.83
2023-05-15T06:08:36.005Z,77.03
2023-05-15T06:10:22.948Z,76.92
2023-05-15T06:12:09.646Z,77.35
2023-05-15T06:13:51.969Z,77.24
2023-05-15T06:15:25.437Z,77.52
2023-05-15T06:17:11.444Z,77.33
2023-05-15T06:18:45.941Z,77.66
2023-05-15T06:20:21.874Z,77.59
2023-05-15T06:21:55.470Z,77.45
2023-05-15T06:23:28.948Z,77.55
2023-05-15T06:25:22.617Z,77.67
2023-05-15T06:27:08.078Z,77.65
2023-05-15T06:28:44.117Z,77.78
2023-05-15T06:30:17.503Z,77.54
2023-05-15T06:31:51.439Z,77.54
2023-05-15T06:33:32.665Z,77.33
2023-05-15T06:34:59.322Z,77.21
2023-05-15T06:36:35.292Z,77.40
2023-05-15T06:38:20.792Z,77.15
2023-05-15T06:40:14.845Z,77.01
2023-05-15T06:41:48.197Z,76.96
2023-05-15T06:43:22.441Z,76.69
2023-05-15T06:44:56.242Z,76.37
2023-05-15T06:46:43.849Z,76.27
2023-05-15T06:48:29.108Z,76.11
2023-05-15T06:50:10.358Z,76.04
2023-05-15T06:51:43.803Z,75.85
2023-05-15T06:53:29.901Z,75.76
2023-05-15T06:55:03.442Z,75.92
2023-05-15T06:56:49.604Z,75.98
2023-05-15T06:58:43.094Z,75.50
2023-05-15T07:00:16.514Z,75.70
2023-05-15T07:01:58.838Z,75.59
2023-05-15T07:03:44.844Z,75.83
2023-05-15T07:05:31.189Z,75.74
2023-05-15T07:07:16.081Z,76.00
2023-05-15T07:08:52.630Z,76.25
2023-05-15T07:10:26.467Z,76.35
2023-05-15T07:12:11.851Z,76.44
2023-05-15T07:13:57.733Z,76.50
2023-05-15T07:15:43.150Z,76.44
2023-05-15T07:17:30.259Z,76.31
2023-05-15T07:19:04.178Z,76.29
2023-05-15T07:20:50.240Z,76.49
2023-05-15T07:22:55.145Z,76.60
2023-05-15T07:24:41.589Z,76.78
2023-05-15T07:26:23.640Z,76.66
2023-05-15T07:28:19.569Z,76.92
2023-05-15T07:29:52.830Z,76.97
2023-05-15T07:31:40.419Z,76.83
2023-05-15T07:33:28.265Z,76.79
2023-05-15T07:35:13.516Z,77.02
2023-05-15T07:36:49.564Z,77.05
2023-05-15T07:38:24.069Z,76.99
2023-05-15T07:40:09.963Z,76.97
2023-05-15T07:41:50.563Z,76.84
2023-05-15T07:43:24.239Z,76.89
2023-05-15T07:44:57.837Z,77.04
2023-05-15T07:46:31.305Z,76.86
2023-05-15T07:48:06.325Z,77.07
2023-05-15T07:49:47.152Z,77.33
2023-05-15T07:51:33.431Z,77.52
2023-05-15T07:53:28.139Z,77.71
2023-05-15T07:55:19.090Z,77.57
2023-05-15T07:56:55.538Z,77.24
2023-05-15T07:58:19.139Z,77.17
2023-05-15T07:59:41.050Z,77.40
2023-05-15T08:01:08.262Z,77.30
2023-05-15T08:02:37.963Z,77.49
2023-05-15T08:04:14.549Z,77.66
2023-05-15T08:05:43.668Z,77.56
2023-05-15T08:07:15.240Z,77.48
2023-05-15T08:08:36.970Z,77.65
2023-05-15T08:09:59.250Z,77.87
2023-05-15T08:11:22.967Z,77.92
2023-05-15T08:13:07.307Z,77.81
2023-05-15T08:14:31.590Z,77.71
2023-05-15T08:15:53.878Z,77.85
2023-05-15T08:17:16.029Z,78.14
2023-05-15T08:18:38.217Z,78.03
2023-05-15T08:20:00.657Z,77.86
2023-05-15T08:21:22.376Z,78.08
2023-05-15T08:22:44.371Z,78.00
2023-05-15T08:24:06.590Z,78.05
2023-05-15T08:25:28.160Z,78.39
2023-05-15T08:26:49.687Z,78.22
2023-05-15T08:28:11.880Z,78.07
2023-05-15T08:29:33.508Z,78.17
2023-05-15T08:30:55.450Z,78.08
2023-05-15T08:32:17.032Z,78.17
2023-05-15T08:33:38.986Z,78.32
2023-05-15T08:35:00.929Z,78.39
2023-05-15T08:36:23.158Z,78.47
2023-05-15T08:37:45.369Z,78.68
2023-05-15T08:39:09.168Z,78.69
2023-05-15T08:40:38.989Z,78.72
2023-05-15T08:42:02.067Z,78.62
2023-05-15T08:43:23.771Z,78.49
2023-05-15T08:44:45.560Z,78.50
2023-05-15T08:46:07.428Z,78.72
2023-05-15T08:47:32.378Z,78.98
2023-05-15T08:48:54.610Z,78.86
2023-05-15T08:50:16.121Z,78.96
2023-05-15T08:51:37.999Z,78.91
2023-05-15T08:53:01.714Z,78.78
2023-05-15T08:54:23.446Z,78.87
2023-05-15T08:55:45.690Z,78.96
2023-05-15T08:57:07.641Z,78.97
2023-05-15T08:58:32.092Z,78.74
2023-05-15T08:59:54.355Z,78.63
2023-05-15T09:01:15.826Z,78.71
2023-05-15T09:02:37.668Z,79.06
2023-05-15T09:04:00.095Z,78.92
2023-05-15T09:05:24.861Z,78.92
2023-05-15T09:06:47.071Z,79.00
2023-05-15T09:08:10.181Z,79.18
2023-05-15T09:09:32.162Z,78.94
2023-05-15T09:10:54.221Z,79.00
2023-05-15T09:12:15.800Z,79.16
2023-05-15T09:13:37.964Z,79.21
2023-05-15T09:14:59.993Z,79.36
2023-05-15T09:16:21.759Z,79.15
2023-05-15T09:17:43.585Z,79.16
2023-05-15T09:19:06.458Z,79.41
2023-05-15T09:20:28.381Z,79.26
2023-05-15T09:21:49.973Z,79.27
2023-05-15T09:23:11.779Z,79.10
2023-05-15T09:24:33.936Z,78.78
2023-05-15T09:25:57.267Z,78.94
2023-05-15T09:27:18.899Z,79.19
2023-05-15T09:28:40.934Z,79.20
2023-05-15T09:30:03.178Z,78.99
2023-05-15T09:31:25.081Z,78.56
2023-05-15T09:32:47.182Z,78.68
2023-05-15T09:34:10.199Z,78.50
2023-05-15T09:35:32.074Z,78.68
2023-05-15T09:36:54.050Z,78.62
2023-05-15T09:38:15.693Z,78.64
2023-05-15T09:39:37.495Z,78.67
2023-05-15T09:40:59.525Z,78.75
2023-05-15T09:42:21.464Z,78.56
2023-05-15T09:43:43.360Z,78.90
2023-05-15T09:45:05.544Z,78.81
2023-05-15T09:46:27.423Z,78.57
2023-05-15T09:47:49.321Z,78.72
2023-05-15T09:49:11.390Z,78.41
2023-05-15T09:50:33.619Z,78.38
2023-05-15T09:51:55.812Z,78.19
2023-05-15T09:53:21.450Z,78.11
2023-05-15T09:54:43.163Z,78.26
2023-05-15T09:56:05.331Z,78.21
2023-05-15T09:57:27.796Z,78.45
2023-05-15T09:58:49.262Z,78.56
2023-05-15T10:00:11.880Z,78.64
2023-05-15T10:01:33.833Z,78.67
2023-05-15T10:03:03.542Z,78.38
2023-05-15T10:04:25.303Z,78.53
2023-05-15T10:05:49.680Z,78.58
2023-05-15T10:07:14.165Z,78.46
2023-05-15T10:08:38.453Z,77.94
2023-05-15T10:10:00.595Z,77.59
2023-05-15T10:11:22.715Z,77.81
2023-05-15T10:12:44.964Z,77.80
2023-05-15T10:14:09.711Z,77.80
2023-05-15T10:15:33.796Z,77.79
2023-05-15T10:17:00.481Z,78.19
2023-05-15T10:18:22.236Z,78.18
2023-05-15T10:19:56.739Z,78.41
2023-05-15T10:21:22.889Z,77.94
2023-05-15T10:22:46.720Z,78.22
2023-05-15T10:24:08.630Z,78.10
2023-05-15T10:25:30.947Z,78.15
2023-05-15T10:27:04.749Z,78.25
2023-05-15T10:28:38.259Z,78.29
2023-05-15T10:30:00.249Z,78.05
2023-05-15T10:31:21.693Z,78.22
2023-05-15T10:32:43.615Z,78.46
2023-05-15T10:34:05.981Z,78.43
2023-05-15T10:35:28.177Z,78.62
2023-05-15T10:36:52.609Z,78.62
2023-05-15T10:38:17.190Z,78.48
2023-05-15T10:39:58.586Z,78.51
2023-05-15T10:41:20.987Z,78.49
2023-05-15T10:42:43.411Z,78.46
2023-05-15T10:44:05.414Z,78.83
2023-05-15T10:45:30.092Z,79.02
2023-05-15T10:46:51.612Z,79.36
2023-05-15T10:48:16.094Z,79.04
2023-05-15T10:49:42.553Z,79.37
2023-05-15T10:51:05.125Z,79.35
2023-05-15T10:52:29.208Z,79.28
2023-05-15T10:53:53.551Z,79.32
2023-05-15T10:55:15.459Z,79.08
2023-05-15T10:56:51.311Z,79.26
2023-05-15T10:58:14.424Z,79.45
2023-05-15T10:59:36.196Z,79.68
2023-05-15T11:00:58.350Z,79.54
2023-05-15T11:02:20.710Z,79.59
2023-05-15T11:03:49.429Z,79.59
2023-05-15T11:05:13.969Z,79.51
2023-05-15T11:06:36.139Z,79.39
2023-05-15T11:07:58.025Z,79.65
2023-05-15T11:09:19.645Z,79.37
2023-05-15T11:10:41.714Z,79.79
2023-05-15T11:12:03.587Z,79.63
2023-05-15T11:13:25.807Z,80.12
2023-05-15T11:14:47.769Z,79.93
2023-05-15T11:16:14.054Z,79.74
2023-05-15T11:17:36.418Z,80.00
2023-05-15T11:19:00.985Z,79.97
2023-05-15T11:20:22.980Z,79.98
2023-05-15T11:21:44.935Z,79.85
2023-05-15T11:23:14.208Z,79.90
2023-05-15T11:24:36.310Z,80.37
2023-05-15T11:26:13.179Z,80.43
2023-05-15T11:27:54.417Z,80.32
2023-05-15T11:29:30.481Z,80.15
2023-05-15T11:30:55.012Z,80.16
2023-05-15T11:32:16.599Z,80.18
2023-05-15T11:33:38.401Z,79.80
2023-05-15T11:35:01.090Z,79.92
2023-05-15T11:36:22.224Z,79.59
2023-05-15T11:37:43.973Z,79.98
2023-05-15T11:39:17.239Z,80.38
2023-05-15T11:40:39.128Z,80.34
2023-05-15T11:42:01.182Z,80.26
2023-05-15T11:43:25.300Z,80.44
2023-05-15T11:44:49.055Z,80.22
2023-05-15T11:46:22.606Z,80.32
2023-05-15T11:47:45.412Z,80.15
2023-05-15T11:49:09.685Z,79.79
2023-05-15T11:50:33.570Z,79.92
2023-05-15T11:51:56.037Z,80.01
2023-05-15T11:53:18.082Z,80.34
2023-05-15T11:54:39.577Z,80.08
2023-05-15T11:56:01.237Z,80.00
2023-05-15T11:57:23.115Z,79.45
2023-05-15T11:58:44.893Z,79.44
2023-05-15T12:00:06.778Z,78.84
2023-05-15T12:01:29.565Z,78.76
2023-05-15T12:02:51.198Z,78.20
2023-05-15T12:04:13.800Z,78.05
2023-05-15T12:05:35.277Z,77.83
2023-05-15T12:06:57.026Z,77.43
2023-05-15T12:08:30.468Z,77.29
2023-05-15T12:09:55.434Z,76.90
2023-05-15T12:11:19.219Z,76.72
2023-05-15T12:12:41.358Z,76.01
2023-05-15T12:14:05.786Z,76.03
2023-05-15T12:15:27.138Z,75.87
2023-05-15T12:16:51.260Z,75.71
2023-05-15T12:18:13.732Z,75.96
2023-05-15T12:19:35.706Z,76.18
2023-05-15T12:21:04.920Z,76.29
2023-05-15T12:22:26.580Z,76.68
2023-05-15T12:23:59.530Z,76.96
2023-05-15T12:25:40.325Z,77.32
2023-05-15T12:27:02.097Z,77.02
2023-05-15T12:28:23.631Z,77.47
2023-05-15T12:29:45.896Z,77.67
2023-05-15T12:31:08.060Z,77.59
2023-05-15T12:32:29.612Z,77.70
2023-05-15T12:33:51.458Z,77.80
2023-05-15T12:35:13.552Z,77.76
2023-05-15T12:36:39.910Z,77.81
2023-05-15T12:38:09.744Z,77.95
2023-05-15T12:39:33.490Z,78.20
2023-05-15T12:41:02.783Z,78.12
2023-05-15T12:42:24.342Z,77.90
2023-05-15T12:43:46.425Z,77.82
2023-05-15T12:45:08.230Z,77.70
2023-05-15T12:46:34.505Z,77.85
2023-05-15T12:47:59.621Z,77.69
2023-05-15T12:49:23.225Z,77.92
2023-05-15T12:50:53.182Z,77.99
2023-05-15T12:52:14.851Z,77.91
2023-05-15T12:53:39.246Z,78.19
2023-05-15T12:55:01.436Z,78.31
2023-05-15T12:56:22.824Z,78.57
2023-05-15T12:57:44.596Z,78.20
2023-05-15T12:59:06.525Z,78.45
2023-05-15T13:00:28.603Z,78.67
2023-05-15T13:01:57.843Z,78.47
2023-05-15T13:03:31.663Z,78.29
2023-05-15T13:04:53.294Z,78.20
2023-05-15T13:06:15.188Z,78.09
2023-05-15T13:07:39.118Z,78.25
2023-05-15T13:09:03.309Z,78.48
2023-05-15T13:10:25.049Z,78.47
2023-05-15T13:11:47.265Z,78.22
2023-05-15T13:13:33.119Z,78.37
2023-05-15T13:14:56.705Z,78.06
2023-05-15T13:16:20.730Z,77.95
2023-05-15T13:17:42.797Z,77.92
2023-05-15T13:19:17.409Z,77.91
2023-05-15T13:20:39.556Z,77.70
2023-05-15T13:22:01.520Z,77.75
2023-05-15T13:23:25.898Z,77.98
2023-05-15T13:24:50.020Z,77.88
2023-05-15T13:26:13.981Z,77.82
2023-05-15T13:27:54.909Z,77.94
2023-05-15T13:29:16.745Z,78.28
2023-05-15T13:30:41.439Z,78.21
2023-05-15T13:32:11.000Z,78.05
2023-05-15T13:33:32.975Z,78.20
2023-05-15T13:34:58.059Z,78.31
2023-05-15T13:36:21.967Z,78.14
2023-05-15T13:37:43.751Z,78.09
2023-05-15T13:39:06.478Z,78.44
2023-05-15T13:40:28.282Z,78.13
2023-05-15T13:41:50.262Z,78.20
2023-05-15T13:43:25.840Z,78.40
2023-05-15T13:44:50.617Z,78.26
2023-05-15T13:46:26.367Z,78.32
2023-05-15T13:47:49.994Z,78.77
2023-05-15T13:49:11.978Z,78.71
2023-05-15T13:50:33.690Z,78.61
2023-05-15T13:51:55.264Z,78.72
2023-05-15T13:53:35.962Z,78.76
2023-05-15T13:54:57.882Z,78.36
2023-05-15T13:56:26.941Z,78.21
2023-05-15T13:57:48.622Z,77.24
2023-05-15T13:59:11.060Z,76.41
2023-05-15T14:00:32.761Z,75.12
2023-05-15T14:01:54.705Z,74.19
2023-05-15T14:03:16.767Z,73.65
2023-05-15T14:04:38.613Z,70.83
2023-05-15T14:06:00.637Z,70.72
2023-05-15T14:07:22.327Z,68.38
2023-05-15T14:08:44.220Z,65.48
2023-05-15T14:10:13.408Z,63.01
2023-05-15T14:11:39.750Z,61.39
2023-05-15T14:13:01.954Z,60.14
2023-05-15T14:14:23.353Z,59.34
2023-05-15T14:15:45.103Z,58.45
2023-05-15T14:17:09.447Z,57.81
2023-05-15T14:18:35.699Z,58.73
2023-05-15T14:19:59.528Z,58.63
2023-05-15T14:21:20.837Z,57.44
2023-05-15T14:22:43.573Z,56.39
2023-05-15T14:24:05.701Z,55.63
2023-05-15T14:25:27.177Z,54.61
2023-05-15T14:26:48.840Z,54.24
2023-05-15T14:28:12.948Z,54.61
2023-05-15T14:29:34.965Z,54.92
2023-05-15T14:30:59.116Z,56.02
2023-05-15T14:32:20.840Z,56.72
2023-05-15T14:33:54.641Z,57.04
2023-05-15T14:35:16.741Z,57.85
2023-05-15T14:36:38.392Z,58.21
2023-05-15T14:38:02.750Z,58.03
2023-05-15T14:39:31.538Z,58.15
2023-05-15T14:40:53.465Z,58.39
2023-05-15T14:42:17.070Z,58.39
2023-05-15T14:43:40.749Z,58.98
2023-05-15T14:45:03.007Z,59.84
2023-05-15T14:46:24.525Z,59.99
2023-05-15T14:47:48.516Z,59.76
2023-05-15T14:49:13.360Z,59.03
2023-05-15T14:50:35.192Z,58.11
2023-05-15T14:51:57.381Z,56.67
2023-05-15T14:53:19.257Z,55.92
2023-05-15T14:54:40.751Z,55.85
2023-05-15T14:56:05.070Z,56.74
2023-05-15T14:57:26.842Z,55.10
2023-05-15T14:58:49.055Z,54.83
2023-05-15T15:00:13.440Z,55.08
2023-05-15T15:01:37.467Z,54.95
2023-05-15T15:02:59.488Z,55.02
2023-05-15T15:04:29.174Z,55.35
2023-05-15T15:05:51.903Z,55.19
2023-05-15T15:07:16.152Z,55.53
2023-05-15T15:08:38.161Z,54.82
2023-05-15T15:10:00.416Z,54.50
2023-05-15T15:11:22.315Z,54.82
2023-05-15T15:12:46.452Z,53.87
2023-05-15T15:14:08.761Z,54.32
2023-05-15T15:15:30.606Z,54.61
2023-05-15T15:16:52.125Z,55.07
2023-05-15T15:18:14.213Z,55.84
2023-05-15T15:19:38.779Z,56.07
2023-05-15T15:21:00.775Z,57.17
2023-05-15T15:22:22.571Z,57.85
2023-05-15T15:23:49.078Z,58.03
2023-05-15T15:25:20.474Z,58.13
2023-05-15T15:26:42.032Z,58.98
2023-05-15T15:28:11.564Z,59.23
2023-05-15T15:29:33.354Z,59.51
2023-05-15T15:30:55.056Z,59.93
2023-05-15T15:32:23.910Z,60.36
2023-05-15T15:33:45.970Z,60.93
2023-05-15T15:35:10.080Z,61.26
2023-05-15T15:36:51.006Z,61.58
2023-05-15T15:38:13.328Z,61.79
2023-05-15T15:39:35.138Z,62.14
2023-05-15T15:40:57.004Z,62.35
2023-05-15T15:42:23.470Z,62.80
2023-05-15T15:43:45.402Z,63.26
2023-05-15T15:45:07.241Z,62.96
2023-05-15T15:46:28.870Z,63.34
2023-05-15T15:47:51.120Z,63.21
2023-05-15T15:49:15.894Z,63.10
2023-05-15T15:50:37.869Z,63.30
2023-05-15T15:52:04.557Z,63.65
2023-05-15T15:53:34.528Z,63.97
2023-05-15T15:54:56.557Z,64.62
2023-05-15T15:56:18.061Z,64.75
2023-05-15T15:57:39.551Z,64.86
2023-05-15T15:59:01.321Z,65.12
2023-05-15T16:00:25.402Z,65.48
2023-05-15T16:01:52.148Z,65.76
2023-05-15T16:03:14.647Z,65.98
2023-05-15T16:04:36.530Z,66.25
2023-05-15T16:05:59.917Z,66.34
2023-05-15T16:07:22.110Z,66.73
2023-05-15T16:08:43.793Z,67.24
2023-05-15T16:11:32.132Z,68.17
2023-05-15T16:12:56.969Z,68.63
2023-05-15T16:14:20.741Z,69.17
2023-05-15T16:15:47.044Z,69.62
2023-05-15T16:17:11.255Z,69.71
2023-05-15T16:18:32.985Z,70.48
2023-05-15T16:19:54.916Z,70.67
2023-05-15T16:21:16.768Z,71.13
2023-05-15T16:22:41.777Z,70.94
2023-05-15T16:24:03.821Z,70.89
2023-05-15T16:25:28.134Z,71.33
2023-05-15T16:26:52.199Z,71.63
2023-05-15T16:28:16.900Z,72.11
2023-05-15T16:29:41.299Z,72.47
2023-05-15T16:31:10.658Z,72.94
2023-05-15T16:32:33.961Z,72.60
2023-05-15T16:33:55.907Z,72.69
2023-05-15T16:35:19.867Z,72.93
2023-05-15T16:36:49.197Z,72.95
2023-05-15T16:38:13.683Z,72.85
2023-05-15T16:39:40.289Z,72.91
2023-05-15T16:41:16.995Z,72.52
2023-05-15T16:42:41.258Z,72.93
2023-05-15T16:44:13.086Z,72.88
2023-05-15T16:45:39.598Z,72.29
2023-05-15T16:47:05.903Z,72.07
2023-05-15T16:48:30.001Z,71.71
2023-05-15T16:50:03.777Z,71.73
2023-05-15T16:51:25.203Z,71.84
2023-05-15T16:52:48.131Z,71.23
2023-05-15T16:54:09.985Z,70.90
2023-05-15T16:55:43.557Z,70.34
2023-05-15T16:57:16.714Z,70.16
2023-05-15T16:58:38.071Z,70.24
2023-05-15T17:00:02.626Z,69.83
2023-05-15T17:01:24.178Z,69.99
2023-05-15T17:02:46.056Z,69.84
2023-05-15T17:04:11.344Z,69.88
2023-05-15T17:05:33.048Z,69.87
2023-05-15T17:06:54.637Z,69.98
2023-05-15T17:08:18.817Z,70.06
2023-05-15T17:09:43.060Z,69.99
2023-05-15T17:11:05.162Z,70.35
2023-05-15T17:12:26.904Z,70.31
2023-05-15T17:13:48.634Z,70.73
2023-05-15T17:15:18.112Z,71.13
2023-05-15T17:16:40.305Z,71.34
2023-05-15T17:18:02.206Z,71.23
2023-05-15T17:19:24.282Z,71.80
2023-05-15T17:20:45.954Z,72.00
2023-05-15T17:22:07.843Z,72.41
2023-05-15T17:23:29.588Z,72.64
2023-05-15T17:24:52.052Z,72.99
2023-05-15T17:26:35.353Z,73.20
2023-05-15T17:28:16.437Z,73.49
2023-05-15T17:29:38.337Z,74.02
2023-05-15T17:31:14.304Z,74.34
2023-05-15T17:32:59.711Z,74.29
2023-05-15T17:34:35.834Z,74.61
2023-05-15T17:36:30.160Z,74.84
2023-05-15T17:38:15.409Z,74.82
2023-05-15T17:40:00.634Z,75.19
2023-05-15T17:41:33.892Z,75.41
2023-05-15T17:42:58.216Z,75.63
2023-05-15T17:44:27.706Z,75.67
2023-05-15T17:46:03.584Z,75.84
2023-05-15T17:47:49.013Z,76.10
2023-05-15T17:49:34.281Z,76.18
2023-05-15T17:51:07.938Z,76.28
2023-05-15T17:52:41.504Z,76.69
2023-05-15T17:54:26.244Z,76.86
2023-05-15T17:56:11.528Z,76.74
2023-05-15T17:57:56.379Z,76.96
2023-05-15T17:59:43.892Z,76.96
2023-05-15T18:01:19.895Z,77.16
2023-05-15T18:03:14.194Z,77.33
2023-05-15T18:04:48.156Z,77.22
2023-05-15T18:06:21.387Z,77.31
2023-05-15T18:08:06.877Z,77.18
2023-05-15T18:09:42.604Z,77.14
2023-05-15T18:11:14.257Z,77.08
2023-05-15T18:12:57.107Z,77.37
2023-05-15T18:14:21.361Z,77.31
2023-05-15T18:15:45.511Z,77.32
2023-05-15T18:17:16.670Z,77.30
2023-05-15T18:19:01.437Z,77.46
2023-05-15T18:20:46.445Z,77.65
2023-05-15T18:22:31.178Z,77.76
2023-05-15T18:24:07.146Z,77.76
2023-05-15T18:25:28.703Z,77.79
2023-05-15T18:27:00.565Z,77.87
2023-05-15T18:28:34.012Z,77.82
2023-05-15T18:30:17.157Z,77.94
2023-05-15T18:32:02.281Z,77.80
2023-05-15T18:33:46.123Z,77.84
2023-05-15T18:35:30.419Z,77.66
2023-05-15T18:37:06.644Z,77.57
2023-05-15T18:38:39.789Z,77.74
2023-05-15T18:40:01.832Z,77.69
2023-05-15T18:41:46.825Z,77.51
2023-05-15T18:45:08.452Z,77.70
2023-05-15T18:46:31.707Z,77.54
2023-05-15T18:48:10.557Z,77.75
2023-05-15T18:49:52.084Z,77.42
2023-05-15T18:51:14.413Z,77.59
2023-05-15T18:52:47.894Z,77.57
2023-05-15T18:54:14.586Z,77.68
2023-05-15T18:55:48.021Z,77.67
2023-05-15T18:57:18.091Z,77.74
2023-05-15T18:58:51.839Z,77.53
2023-05-15T19:00:38.821Z,77.61
2023-05-15T19:02:15.008Z,77.51
2023-05-15T19:03:48.537Z,77.23
2023-05-15T19:05:33.589Z,77.27
2023-05-15T19:07:14.362Z,77.14
2023-05-15T19:08:59.230Z,77.39
2023-05-15T19:10:40.089Z,77.29
2023-05-15T19:12:06.364Z,77.31
2023-05-15T19:13:51.643Z,77.27
2023-05-15T19:15:25.286Z,77.35
2023-05-15T19:16:51.522Z,77.50
2023-05-15T19:18:36.951Z,77.52
2023-05-15T19:20:18.324Z,77.65
2023-05-15T19:21:51.742Z,77.66
2023-05-15T19:23:35.948Z,77.50
2023-05-15T19:25:16.649Z,77.58
2023-05-15T19:26:47.697Z,77.67
2023-05-15T19:28:21.277Z,77.71
2023-05-15T19:29:43.061Z,77.80
2023-05-15T19:31:14.022Z,77.61
2023-05-15T19:32:38.931Z,77.97
2023-05-15T19:34:00.815Z,77.91